Terminal Aerodrome Forecast
Issued by NWS

Current Version | Previous Version | Text Only | Print | Product List | Glossary On
Versions: 1 2 3 4 5 6 7 8 9 10 11 12 13 14 15 16 17
000
FTUS45 KBOU 241733
TAFAPA
TAF
KAPA 241733Z 2418/2518 23007KT P6SM FEW150 BKN200
     FM241900 05008KT P6SM FEW150 SCT200
     FM250000 11009KT P6SM FEW180
     FM250600 20010KT P6SM SKC
     FM251700 VRB05KT P6SM SKC=

USA.gov is the U.S. government's official web portal to all federal, state and local government web resources and services.